createdAt,value
2018-12-22T00:00:51.254Z,10.50
2018-12-22T00:03:17.919Z,10.50
2018-12-22T00:05:44.567Z,10.60
2018-12-22T00:08:11.224Z,10.60
2018-12-22T00:10:37.880Z,10.60
2018-12-22T00:13:04.547Z,10.50
2018-12-22T00:15:31.187Z,10.60
2018-12-22T00:17:57.863Z,10.60
2018-12-22T00:20:24.503Z,10.50
2018-12-22T00:22:51.167Z,10.40
2018-12-22T00:25:17.805Z,10.30
2018-12-22T00:27:45.133Z,10.20
2018-12-22T00:30:11.823Z,10.20
2018-12-22T00:32:39.026Z,10.20
2018-12-22T00:35:05.927Z,10.20
2018-12-22T00:37:32.738Z,10.30
2018-12-22T00:39:59.621Z,10.30
2018-12-22T00:42:26.477Z,10.40
2018-12-22T00:44:53.296Z,10.50
2018-12-22T00:47:20.127Z,10.30
2018-12-22T00:49:47.236Z,10.40
2018-12-22T00:52:14.028Z,10.30
2018-12-22T00:54:40.951Z,10.30
2018-12-22T00:57:07.817Z,10.30
2018-12-22T00:59:34.670Z,10.30
2018-12-22T01:02:01.482Z,10.20
2018-12-22T01:04:28.334Z,10.30
2018-12-22T01:06:55.394Z,10.20
2018-12-22T01:09:22.225Z,10.10
2018-12-22T01:11:49.111Z,10.00
2018-12-22T01:14:16.003Z,9.90
2018-12-22T01:16:44.774Z,9.90
2018-12-22T01:19:11.594Z,9.90
2018-12-22T01:21:38.277Z,9.90
2018-12-22T01:24:04.916Z,9.90
2018-12-22T01:26:31.582Z,9.80
2018-12-22T01:28:58.215Z,9.80
2018-12-22T01:31:24.899Z,9.80
2018-12-22T01:33:51.518Z,9.80
2018-12-22T01:36:18.226Z,9.80
2018-12-22T01:38:44.891Z,9.90
2018-12-22T01:41:11.583Z,9.90
2018-12-22T01:43:38.382Z,9.90
2018-12-22T01:46:05.168Z,9.90
2018-12-22T01:48:31.887Z,9.90
2018-12-22T01:50:58.703Z,9.90
2018-12-22T01:53:25.475Z,9.90
2018-12-22T01:55:52.121Z,9.80
2018-12-22T01:58:18.787Z,9.80
2018-12-22T02:00:45.480Z,9.70
2018-12-22T02:03:12.146Z,9.70
2018-12-22T02:05:38.830Z,9.80
2018-12-22T02:08:05.459Z,9.80
2018-12-22T02:10:32.423Z,9.80
2018-12-22T02:12:59.087Z,9.80
2018-12-22T02:15:25.728Z,9.80
2018-12-22T02:17:52.383Z,9.90
2018-12-22T02:20:20.077Z,9.90
2018-12-22T02:22:46.799Z,9.90
2018-12-22T02:25:13.469Z,9.90
2018-12-22T02:27:40.141Z,9.90
2018-12-22T02:30:06.804Z,10.00
2018-12-22T02:32:33.455Z,10.00
2018-12-22T02:35:00.132Z,10.00
2018-12-22T02:37:26.762Z,10.00
2018-12-22T02:39:53.439Z,9.90
2018-12-22T02:42:20.062Z,9.90
2018-12-22T02:44:47.487Z,9.90
2018-12-22T02:47:14.112Z,9.90
2018-12-22T02:49:40.787Z,9.90
2018-12-22T02:52:07.447Z,9.80
2018-12-22T02:54:34.107Z,9.70
2018-12-22T02:57:00.743Z,9.70
2018-12-22T02:59:27.412Z,9.70
2018-12-22T03:01:54.078Z,9.70
2018-12-22T03:04:20.840Z,9.70
2018-12-22T03:06:47.504Z,9.80
2018-12-22T03:09:14.175Z,9.90
2018-12-22T03:11:40.807Z,9.90
2018-12-22T03:14:07.470Z,9.90
2018-12-22T03:16:34.134Z,9.90
2018-12-22T03:19:00.763Z,9.90
2018-12-22T03:21:27.434Z,9.90
2018-12-22T03:23:54.095Z,9.80
2018-12-22T03:26:20.736Z,9.80
2018-12-22T03:28:47.404Z,9.70
2018-12-22T03:31:14.184Z,9.70
2018-12-22T03:33:40.825Z,9.70
2018-12-22T03:36:07.495Z,9.60
2018-12-22T03:38:34.162Z,9.60
2018-12-22T03:41:00.928Z,9.60
2018-12-22T03:43:27.587Z,9.60
2018-12-22T03:45:54.367Z,9.60
2018-12-22T03:48:20.995Z,9.60
2018-12-22T03:50:47.681Z,9.60
2018-12-22T03:53:14.375Z,9.70
2018-12-22T03:55:40.999Z,9.70
2018-12-22T03:58:14.561Z,9.70
2018-12-22T04:00:41.198Z,9.70
2018-12-22T04:03:07.871Z,9.80
2018-12-22T04:05:34.513Z,9.80
2018-12-22T04:08:01.180Z,9.90
2018-12-22T04:10:27.827Z,9.90
2018-12-22T04:12:54.497Z,9.90
2018-12-22T04:15:21.159Z,9.90
2018-12-22T04:17:47.780Z,9.90
2018-12-22T04:20:14.453Z,9.90
2018-12-22T04:22:41.084Z,9.90
2018-12-22T04:25:07.759Z,10.00
2018-12-22T04:27:34.404Z,10.00
2018-12-22T04:30:01.083Z,10.00
2018-12-22T04:32:27.727Z,10.00
2018-12-22T04:34:54.391Z,10.10
2018-12-22T04:37:21.021Z,10.10
2018-12-22T04:39:49.375Z,10.10
2018-12-22T04:42:15.996Z,10.10
2018-12-22T04:44:42.651Z,10.10
2018-12-22T04:47:09.327Z,10.10
2018-12-22T04:49:35.984Z,10.20
2018-12-22T04:52:02.659Z,10.20
2018-12-22T04:54:29.297Z,10.30
2018-12-22T04:56:55.981Z,10.30
2018-12-22T04:59:29.559Z,10.30
2018-12-22T05:01:56.324Z,10.40
2018-12-22T05:04:22.984Z,10.50
2018-12-22T05:06:49.665Z,10.50
2018-12-22T05:09:16.389Z,10.60
2018-12-22T05:11:43.063Z,10.60
2018-12-22T05:14:09.683Z,10.50
2018-12-22T05:16:36.356Z,10.50
2018-12-22T05:19:03.007Z,10.50
2018-12-22T05:21:29.680Z,10.50
2018-12-22T05:23:56.303Z,10.60
2018-12-22T05:26:23.003Z,10.60
2018-12-22T05:28:49.675Z,10.70
2018-12-22T05:31:16.299Z,10.60
2018-12-22T05:33:42.961Z,10.60
2018-12-22T05:36:09.586Z,10.70
2018-12-22T05:38:36.243Z,10.70
2018-12-22T05:41:02.996Z,10.80
2018-12-22T05:43:29.713Z,10.70
2018-12-22T05:45:56.343Z,10.70
2018-12-22T05:48:23.040Z,10.70
2018-12-22T05:50:49.674Z,10.70
2018-12-22T05:53:16.343Z,10.60
2018-12-22T05:55:42.975Z,10.60
2018-12-22T05:58:09.628Z,10.70
2018-12-22T06:00:36.658Z,10.70
2018-12-22T06:03:03.398Z,10.70
2018-12-22T06:05:30.036Z,10.60
2018-12-22T06:07:56.700Z,10.70
2018-12-22T06:10:23.343Z,10.80
2018-12-22T06:12:49.967Z,10.80
2018-12-22T06:15:16.640Z,10.80
2018-12-22T06:17:43.274Z,10.90
2018-12-22T06:20:17.020Z,10.90
2018-12-22T06:22:43.647Z,10.80
2018-12-22T06:25:10.342Z,10.80
2018-12-22T06:27:36.966Z,10.80
2018-12-22T06:30:09.174Z,10.70
2018-12-22T06:32:33.176Z,10.70
2018-12-22T06:34:59.835Z,10.70
2018-12-22T06:37:26.459Z,10.60
2018-12-22T06:39:53.130Z,10.50
2018-12-22T06:42:19.888Z,10.40
2018-12-22T06:44:46.596Z,10.40
2018-12-22T06:47:13.263Z,10.40
2018-12-22T06:49:39.891Z,10.50
2018-12-22T06:52:07.159Z,10.60
2018-12-22T06:54:34.892Z,10.80
2018-12-22T06:57:01.609Z,10.80
2018-12-22T06:59:28.253Z,10.80
2018-12-22T07:01:54.931Z,10.80
2018-12-22T07:04:21.559Z,10.80
2018-12-22T07:06:48.232Z,10.90
2018-12-22T07:09:14.855Z,10.80
2018-12-22T07:11:41.537Z,10.70
2018-12-22T07:14:08.168Z,10.80
2018-12-22T07:16:34.835Z,10.80
2018-12-22T07:19:01.493Z,10.80
2018-12-22T07:21:28.132Z,10.70
2018-12-22T07:23:54.828Z,10.70
2018-12-22T07:26:21.454Z,10.80
2018-12-22T07:28:48.139Z,10.80
2018-12-22T07:31:14.780Z,10.90
2018-12-22T07:33:41.478Z,10.90
2018-12-22T07:36:08.180Z,10.90
2018-12-22T07:38:34.815Z,10.90
2018-12-22T07:41:01.480Z,10.90
2018-12-22T07:43:28.110Z,10.90
2018-12-22T07:45:54.860Z,10.90
2018-12-22T07:48:21.486Z,10.90
2018-12-22T07:50:48.151Z,11.00
2018-12-22T07:53:14.807Z,11.00
2018-12-22T07:55:41.427Z,11.00
2018-12-22T07:58:08.087Z,11.00
2018-12-22T08:00:35.252Z,11.00
2018-12-22T08:03:02.123Z,11.10
2018-12-22T08:05:28.758Z,11.00
2018-12-22T08:07:55.431Z,11.00
2018-12-22T08:10:22.081Z,11.10
2018-12-22T08:12:48.754Z,11.10
2018-12-22T08:15:15.387Z,11.10
2018-12-22T08:17:42.050Z,11.10
2018-12-22T08:20:08.735Z,11.20
2018-12-22T08:22:35.411Z,11.20
2018-12-22T08:25:02.104Z,11.20
2018-12-22T08:27:28.727Z,11.20
2018-12-22T08:29:55.389Z,11.10
2018-12-22T08:32:22.051Z,11.10
2018-12-22T08:34:48.715Z,11.10
2018-12-22T08:37:15.344Z,11.10
2018-12-22T08:39:42.029Z,11.10
2018-12-22T08:42:09.116Z,11.10
2018-12-22T08:44:35.803Z,11.10
2018-12-22T08:47:02.451Z,11.10
2018-12-22T08:49:29.136Z,11.10
2018-12-22T08:51:55.771Z,11.00
2018-12-22T08:54:22.433Z,11.00
2018-12-22T08:56:49.117Z,11.00
2018-12-22T08:59:15.760Z,10.90
2018-12-22T09:01:42.431Z,10.90
2018-12-22T09:04:09.073Z,10.80
2018-12-22T09:06:35.762Z,10.80
2018-12-22T09:09:09.428Z,10.80
2018-12-22T09:11:36.084Z,10.90
2018-12-22T09:14:02.768Z,10.90
2018-12-22T09:16:29.463Z,10.90
2018-12-22T09:18:56.116Z,10.90
2018-12-22T09:21:22.797Z,10.90
2018-12-22T09:23:49.438Z,10.90
2018-12-22T09:26:16.110Z,10.90
2018-12-22T09:28:42.780Z,10.90
2018-12-22T09:31:09.453Z,10.80
2018-12-22T09:33:36.135Z,10.80
2018-12-22T09:36:02.786Z,10.80
2018-12-22T09:38:29.479Z,10.80
2018-12-22T09:40:56.272Z,10.90
2018-12-22T09:43:22.996Z,10.90
2018-12-22T09:45:49.639Z,10.90
2018-12-22T09:48:16.307Z,11.00
2018-12-22T09:50:42.987Z,11.00
2018-12-22T09:53:10.008Z,11.00
2018-12-22T09:55:36.899Z,11.10
2018-12-22T09:58:03.579Z,11.10
2018-12-22T10:00:30.228Z,11.10
2018-12-22T10:02:56.912Z,11.10
2018-12-22T10:05:23.561Z,11.10
2018-12-22T10:07:50.224Z,11.00
2018-12-22T10:10:16.874Z,11.10
2018-12-22T10:12:43.538Z,11.10
2018-12-22T10:15:10.258Z,11.10
2018-12-22T10:17:36.948Z,11.20
2018-12-22T10:20:05.573Z,11.20
2018-12-22T10:22:32.280Z,11.20
2018-12-22T10:24:58.927Z,11.20
2018-12-22T10:27:26.192Z,11.20
2018-12-22T10:29:52.874Z,11.30
2018-12-22T10:32:19.689Z,11.30
2018-12-22T10:37:49.031Z,11.40
2018-12-22T10:40:15.956Z,11.40
2018-12-22T10:42:42.874Z,11.40
2018-12-22T10:45:09.719Z,11.30
2018-12-22T10:47:36.507Z,11.20
2018-12-22T10:50:04.162Z,11.20
2018-12-22T10:52:30.803Z,11.10
2018-12-22T10:54:57.474Z,11.10
2018-12-22T10:57:24.141Z,11.00
2018-12-22T10:59:50.799Z,11.00
2018-12-22T11:02:17.443Z,11.00
2018-12-22T11:04:44.111Z,10.90
2018-12-22T11:07:10.816Z,10.80
2018-12-22T11:09:37.485Z,10.80
2018-12-22T11:12:04.229Z,10.90
2018-12-22T11:14:31.160Z,10.80
2018-12-22T11:16:57.831Z,10.70
2018-12-22T11:19:24.472Z,10.60
2018-12-22T11:21:58.213Z,10.70
2018-12-22T11:24:24.959Z,10.70
2018-12-22T11:26:51.643Z,10.60
2018-12-22T11:29:18.751Z,10.60
2018-12-22T11:31:45.436Z,10.50
2018-12-22T11:34:13.166Z,10.50
2018-12-22T11:36:39.831Z,10.50
2018-12-22T11:39:06.494Z,10.50
2018-12-22T11:41:33.164Z,10.50
2018-12-22T11:43:59.804Z,10.50
2018-12-22T11:46:26.473Z,10.40
2018-12-22T11:48:55.591Z,10.40
2018-12-22T11:51:22.244Z,10.40
2018-12-22T11:53:48.926Z,10.40
2018-12-22T11:56:15.563Z,10.40
2018-12-22T11:58:42.242Z,10.40
2018-12-22T12:01:08.879Z,10.30
2018-12-22T12:03:35.555Z,10.30
2018-12-22T12:06:09.256Z,10.20
2018-12-22T12:08:35.922Z,10.20
2018-12-22T12:11:02.575Z,10.10
2018-12-22T12:13:29.337Z,10.20
2018-12-22T12:15:57.391Z,10.20
2018-12-22T12:18:30.012Z,10.20
2018-12-22T12:20:56.692Z,10.20
2018-12-22T12:23:23.394Z,10.20
2018-12-22T12:25:50.184Z,10.30
2018-12-22T12:28:17.069Z,10.30
2018-12-22T12:30:43.832Z,10.40
2018-12-22T12:33:17.492Z,10.30
2018-12-22T12:35:44.513Z,10.40
2018-12-22T12:38:11.389Z,10.30
2018-12-22T12:40:38.244Z,10.30
2018-12-22T12:43:04.986Z,10.40
2018-12-22T12:45:32.119Z,10.40
2018-12-22T12:47:58.787Z,10.40
2018-12-22T12:50:25.424Z,10.40
2018-12-22T12:52:52.515Z,10.30
2018-12-22T12:55:26.343Z,10.30
2018-12-22T12:57:53.052Z,10.30
2018-12-22T13:00:20.413Z,10.20
2018-12-22T13:02:47.235Z,10.20
2018-12-22T13:05:13.923Z,10.20
2018-12-22T13:07:40.576Z,10.20
2018-12-22T13:10:10.839Z,10.10
2018-12-22T13:15:47.691Z,10.10
2018-12-22T13:18:14.402Z,10.00
2018-12-22T13:20:41.044Z,10.00
2018-12-22T13:23:07.723Z,10.00
2018-12-22T13:25:34.387Z,9.90
2018-12-22T13:28:01.016Z,9.90
2018-12-22T13:30:27.696Z,10.00
2018-12-22T13:32:54.416Z,9.90
2018-12-22T13:35:21.143Z,9.90
2018-12-22T13:37:48.187Z,9.90
2018-12-22T13:40:14.892Z,9.90
2018-12-22T13:42:41.548Z,9.90
2018-12-22T13:45:10.120Z,9.90
2018-12-22T13:47:37.061Z,10.00
2018-12-22T13:50:10.069Z,10.00
2018-12-22T13:52:36.848Z,9.90
2018-12-22T13:55:06.980Z,9.90
2018-12-22T13:57:33.682Z,9.90
2018-12-22T14:00:00.420Z,9.90
2018-12-22T14:02:27.656Z,10.00
2018-12-22T14:04:54.324Z,10.00
2018-12-22T14:07:20.987Z,10.00
2018-12-22T14:09:47.615Z,10.00
2018-12-22T14:12:14.293Z,9.90
2018-12-22T14:14:48.004Z,10.00
2018-12-22T14:17:14.763Z,10.00
2018-12-22T14:19:41.621Z,9.90
2018-12-22T14:22:08.275Z,10.00
2018-12-22T14:24:34.940Z,10.00
2018-12-22T14:27:01.659Z,9.90
2018-12-22T14:29:28.303Z,9.90
2018-12-22T14:31:55.024Z,9.90
2018-12-22T14:34:23.991Z,10.00
2018-12-22T14:36:50.634Z,10.00
2018-12-22T14:39:17.359Z,10.00
2018-12-22T14:41:44.023Z,9.90
2018-12-22T14:44:10.660Z,9.80
2018-12-22T14:46:37.344Z,9.70
2018-12-22T14:49:10.864Z,9.40
2018-12-22T14:51:37.535Z,9.10
2018-12-22T14:54:04.204Z,9.00
2018-12-22T14:56:34.819Z,8.90
2018-12-22T14:59:02.483Z,8.90
2018-12-22T15:01:29.157Z,8.70
2018-12-22T15:03:55.836Z,8.60
2018-12-22T15:06:22.532Z,8.40
2018-12-22T15:08:49.211Z,8.40
2018-12-22T15:11:15.858Z,8.00
2018-12-22T15:13:42.521Z,7.80
2018-12-22T15:16:09.194Z,7.80
2018-12-22T15:18:35.879Z,7.80
2018-12-22T15:21:02.607Z,7.80
2018-12-22T15:23:29.293Z,7.80
2018-12-22T15:25:55.933Z,7.80
2018-12-22T15:28:22.604Z,7.70
2018-12-22T15:30:56.155Z,7.70
2018-12-22T15:33:22.831Z,7.70
2018-12-22T15:35:49.499Z,7.70
2018-12-22T15:38:16.129Z,7.80
2018-12-22T15:40:42.785Z,7.80
2018-12-22T15:43:09.446Z,7.80
2018-12-22T15:45:36.091Z,7.90
2018-12-22T15:48:02.781Z,7.90
2018-12-22T15:50:36.163Z,7.90
2018-12-22T15:53:02.892Z,8.00
2018-12-22T15:55:29.561Z,8.00
2018-12-22T15:57:56.195Z,8.10
2018-12-22T16:00:22.880Z,8.10
2018-12-22T16:02:53.408Z,8.10
2018-12-22T16:05:18.247Z,8.10
2018-12-22T16:07:44.917Z,8.10
2018-12-22T16:10:15.026Z,8.20
2018-12-22T16:12:41.699Z,8.20
2018-12-22T16:15:12.058Z,8.20
2018-12-22T16:17:38.762Z,8.10
2018-12-22T16:20:09.488Z,8.00
2018-12-22T16:22:36.161Z,7.90
2018-12-22T16:25:11.356Z,7.90
2018-12-22T16:27:34.980Z,7.90
2018-12-22T16:30:16.230Z,7.80
2018-12-22T16:32:42.928Z,7.70
2018-12-22T16:35:09.592Z,7.70
2018-12-22T16:37:36.248Z,7.70
2018-12-22T16:40:05.994Z,7.70
2018-12-22T16:42:32.669Z,7.70
2018-12-22T16:44:59.313Z,7.60
2018-12-22T16:47:25.984Z,7.50
2018-12-22T16:49:52.652Z,7.50
2018-12-22T16:52:19.279Z,7.50
2018-12-22T16:54:45.947Z,7.50
2018-12-22T16:57:12.642Z,7.50
2018-12-22T16:59:39.294Z,7.50
2018-12-22T17:02:06.112Z,7.50
2018-12-22T17:04:32.783Z,7.50
2018-12-22T17:06:59.520Z,7.40
2018-12-22T17:09:26.184Z,7.40
2018-12-22T17:11:52.847Z,7.40
2018-12-22T17:14:19.526Z,7.40
2018-12-22T17:16:46.271Z,7.40
2018-12-22T17:19:13.006Z,7.40
2018-12-22T17:21:39.821Z,7.40
2018-12-22T17:24:07.109Z,7.40
2018-12-22T17:26:33.936Z,7.30
2018-12-22T17:29:00.635Z,7.30
2018-12-22T17:31:27.548Z,7.30
2018-12-22T17:33:54.314Z,7.30
2018-12-22T17:36:21.019Z,7.30
2018-12-22T17:38:47.689Z,7.30
2018-12-22T17:41:14.339Z,7.30
2018-12-22T17:43:41.024Z,7.30
2018-12-22T17:46:07.768Z,7.30
2018-12-22T17:48:34.607Z,7.30
2018-12-22T17:51:01.253Z,7.30
2018-12-22T17:53:27.948Z,7.40
2018-12-22T17:55:54.593Z,7.40
2018-12-22T17:58:21.236Z,7.40
2018-12-22T18:00:47.920Z,7.40
2018-12-22T18:03:14.584Z,7.50
2018-12-22T18:05:41.315Z,7.50
2018-12-22T18:08:07.964Z,7.50
2018-12-22T18:10:34.626Z,7.50
2018-12-22T18:13:01.274Z,7.50
2018-12-22T18:15:27.976Z,7.50
2018-12-22T18:17:54.616Z,7.50
2018-12-22T18:20:21.320Z,7.50
2018-12-22T18:22:47.984Z,7.50
2018-12-22T18:25:18.219Z,7.50
2018-12-22T18:27:46.843Z,7.40
2018-12-22T18:30:13.539Z,7.40
2018-12-22T18:32:41.386Z,7.50
2018-12-22T18:35:10.016Z,7.50
2018-12-22T18:37:37.074Z,7.50
2018-12-22T18:40:10.191Z,7.50
2018-12-22T18:42:36.897Z,7.50
2018-12-22T18:45:06.720Z,7.50
2018-12-22T18:47:33.482Z,7.60
2018-12-22T18:50:00.147Z,7.60
2018-12-22T18:52:26.804Z,7.60
2018-12-22T18:54:53.439Z,7.70
2018-12-22T18:57:20.127Z,7.70
2018-12-22T18:59:46.760Z,7.70
2018-12-22T19:02:13.435Z,7.60
2018-12-22T19:04:40.128Z,7.60
2018-12-22T19:07:06.869Z,7.60
2018-12-22T19:09:33.663Z,7.60
2018-12-22T19:12:00.461Z,7.50
2018-12-22T19:14:27.187Z,7.50
2018-12-22T19:16:53.820Z,7.40
2018-12-22T19:19:20.605Z,7.40
2018-12-22T19:21:47.275Z,7.40
2018-12-22T19:24:13.952Z,7.40
2018-12-22T19:26:40.616Z,7.50
2018-12-22T19:29:07.288Z,7.50
2018-12-22T19:31:41.550Z,7.50
2018-12-22T19:34:02.652Z,7.50
2018-12-22T19:36:29.297Z,7.50
2018-12-22T19:38:56.044Z,7.50
2018-12-22T19:41:22.741Z,7.50
2018-12-22T19:43:49.544Z,7.50
2018-12-22T19:46:16.219Z,7.50
2018-12-22T19:48:42.956Z,7.40
2018-12-22T19:51:09.716Z,7.50
2018-12-22T19:53:37.167Z,7.40
2018-12-22T19:56:03.875Z,7.50
2018-12-22T19:58:30.520Z,7.50
2018-12-22T20:00:57.196Z,7.60
2018-12-22T20:03:23.833Z,7.60
2018-12-22T20:05:50.499Z,7.50
2018-12-22T20:08:17.133Z,7.50
2018-12-22T20:10:45.118Z,7.50
2018-12-22T20:13:12.000Z,7.60
2018-12-22T20:15:38.680Z,7.60
2018-12-22T20:18:05.319Z,7.60
2018-12-22T20:20:31.984Z,7.70
2018-12-22T20:26:01.021Z,7.70
2018-12-22T20:28:27.680Z,7.70
2018-12-22T20:30:54.359Z,7.80
2018-12-22T20:33:21.037Z,7.80
2018-12-22T20:35:47.687Z,7.80
2018-12-22T20:38:14.372Z,7.80
2018-12-22T20:40:41.017Z,7.80
2018-12-22T20:43:07.913Z,7.80
2018-12-22T20:45:34.569Z,7.80
2018-12-22T20:48:01.348Z,7.80
2018-12-22T20:50:27.975Z,7.80
2018-12-22T20:52:54.651Z,7.80
2018-12-22T20:55:22.644Z,7.80
2018-12-22T20:57:49.335Z,7.80
2018-12-22T21:00:15.987Z,7.80
2018-12-22T21:02:42.723Z,7.80
2018-12-22T21:05:09.483Z,7.80
2018-12-22T21:07:36.196Z,7.70
2018-12-22T21:10:03.194Z,7.70
2018-12-22T21:12:30.026Z,7.70
2018-12-22T21:14:56.680Z,7.70
2018-12-22T21:17:23.428Z,7.80
2018-12-22T21:19:50.128Z,7.70
2018-12-22T21:22:16.875Z,7.80
2018-12-22T21:24:50.516Z,7.80
2018-12-22T21:27:17.161Z,7.80
2018-12-22T21:29:43.844Z,7.80
2018-12-22T21:32:10.487Z,7.80
2018-12-22T21:34:37.186Z,7.80
2018-12-22T21:37:10.779Z,7.80
2018-12-22T21:39:37.567Z,7.80
2018-12-22T21:42:04.222Z,7.70
2018-12-22T21:44:30.894Z,7.80
2018-12-22T21:47:04.656Z,7.80
2018-12-22T21:49:31.339Z,7.70
2018-12-22T21:51:57.988Z,7.70
2018-12-22T21:54:24.825Z,7.70
2018-12-22T21:56:51.808Z,7.70
2018-12-22T21:59:18.607Z,7.70
2018-12-22T22:01:45.312Z,7.70
2018-12-22T22:04:11.948Z,7.70
2018-12-22T22:06:38.639Z,7.70
2018-12-22T22:09:05.471Z,7.70
2018-12-22T22:11:32.183Z,7.70
2018-12-22T22:13:58.955Z,7.70
2018-12-22T22:16:25.640Z,7.70
2018-12-22T22:18:52.383Z,7.70
2018-12-22T22:21:19.410Z,7.60
2018-12-22T22:23:46.064Z,7.60
2018-12-22T22:26:12.744Z,7.60
2018-12-22T22:28:39.392Z,7.60
2018-12-22T22:31:06.081Z,7.60
2018-12-22T22:33:32.737Z,7.70
2018-12-22T22:35:59.429Z,7.70
2018-12-22T22:38:26.086Z,7.60
2018-12-22T22:40:53.829Z,7.70
2018-12-22T22:43:20.564Z,7.60
2018-12-22T22:45:47.263Z,7.60
2018-12-22T22:48:14.008Z,7.60
2018-12-22T22:50:40.655Z,7.60
2018-12-22T22:53:07.329Z,7.60
2018-12-22T22:55:33.964Z,7.60
2018-12-22T22:58:00.713Z,7.50
2018-12-22T23:00:29.658Z,7.60
2018-12-22T23:02:56.335Z,7.60
2018-12-22T23:05:23.019Z,7.60
2018-12-22T23:07:49.887Z,7.60
2018-12-22T23:10:16.579Z,7.70
2018-12-22T23:12:43.242Z,7.70
2018-12-22T23:15:09.895Z,7.80
2018-12-22T23:17:36.624Z,7.90
2018-12-22T23:20:04.745Z,8.00
2018-12-22T23:22:31.456Z,8.00
2018-12-22T23:24:58.103Z,8.00
2018-12-22T23:27:24.776Z,8.00
2018-12-22T23:29:51.488Z,8.00
2018-12-22T23:32:18.136Z,8.00
2018-12-22T23:34:44.825Z,8.10
2018-12-22T23:37:11.468Z,8.00
2018-12-22T23:39:38.148Z,8.00
2018-12-22T23:42:04.804Z,7.90
2018-12-22T23:44:31.488Z,7.80
2018-12-22T23:46:58.144Z,7.80
2018-12-22T23:49:24.827Z,7.80
2018-12-22T23:51:51.472Z,7.80
2018-12-22T23:54:18.155Z,7.80
2018-12-22T23:56:44.830Z,7.80
2018-12-22T23:59:11.503Z,7.80
